Flight Track Log - Related Links

Times and Time Zones

All times are in EDT time to prevent confusion due to time zone crossing. See the QFA1073 flight status page for this flight to view local times or setup timezone preferences in your user account.

Time Position Orientation Groundspeed Altitude Reporting Facility
EDT Latitude Longitude Course Direction KTS MPH feet Rate Location/Type
Tue 01:01:07 AM -17.9465 122.2189 286° West 162 186 200  Level FlightAware ADS-B (YBRM / BME)
Tue 01:01:16 AM -17.9496 122.2277 287° West 16,300 2,471 Climbing Aus ATC (Calculated)
Tue 01:01:24 AM -17.9433 122.2066 286° West 164 189 900 -37,000 Descending FlightAware ADS-B (YBRM / BME)
Tue 01:01:40 AM -17.9403 122.1938 283° West 175 201 1,500 1,846 Climbing FlightAware ADS-B (YBRM / BME)
Tue 01:01:50 AM -17.9396 122.1846 269° West 188 216 1,700 1,286 Climbing FlightAware ADS-B (YBRM / BME)
Tue 01:01:54 AM -17.9403 122.1811 260° West 195 224 1,800 1,500 Climbing FlightAware ADS-B (YBRM / BME)
Tue 01:01:58 AM -17.9417 122.1771 250° West 203 234 1,900 1,333 Climbing FlightAware ADS-B (YBRM / BME)
Tue 01:02:03 AM -17.9443 122.1727 237° Southwest 212 244 2,000 1,333 Climbing FlightAware ADS-B (YBRM / BME)
Tue 01:02:07 AM -17.9471 122.1696 228° Southwest 217 250 2,100 1,500 Climbing FlightAware ADS-B (YBRM / BME)
Tue 01:02:11 AM -17.9506 122.1668 216° Southwest 224 258 2,200 2,000 Climbing FlightAware ADS-B (YBRM / BME)
Tue 01:02:15 AM -18.0012 122.1930 326° Northwest 16,300 2,250 Climbing Aus ATC (Calculated)
Tue 01:02:19 AM -17.9587 122.1633 199° South 232 267 2,500 -90,667 Descending FlightAware ADS-B (YBRM / BME)
Tue 01:02:24 AM -17.9634 122.1626 188° South 236 272 2,700 2,400 Climbing FlightAware ADS-B (YBRM / BME)
Tue 01:02:29 AM -17.9685 122.1628 176° South 237 273 2,900 3,333 Climbing FlightAware ADS-B (YBRM / BME)
Tue 01:02:33 AM -17.9733 122.1637 169° South 237 273 3,200 3,750 Climbing FlightAware ADS-B (YBRM / BME)
Tue 01:02:37 AM -17.9777 122.1651 164° South 238 274 3,400 2,727 Climbing FlightAware ADS-B (YBRM / BME)
Tue 01:02:44 AM -17.9854 122.1683 156° South 247 284 3,700 2,000 Climbing FlightAware ADS-B (YBRM / BME)
Tue 01:02:58 AM -18.0000 122.1762 152° Southeast 262 302 4,100 1,667 Climbing FlightAware ADS-B (YBRM / BME)
Tue 01:03:02 AM -18.0046 122.1782 157° South 263 303 4,200 1,500 Climbing FlightAware ADS-B (YBRM / BME)
Tue 01:03:10 AM -18.0137 122.1802 172° South 265 305 4,400 1,000 Climbing FlightAware ADS-B (YBRM / BME)
Tue 01:03:14 AM -18.0186 122.1802 180° South 266 306 4,400 750 Level FlightAware ADS-B (YBRM / BME)
Tue 01:03:18 AM -18.0221 122.1798 188° South 267 307 4,500 1,500 Climbing FlightAware ADS-B (YBRM / BME)
Tue 01:03:22 AM -18.0289 122.1781 195° South 269 310 4,600 1,000 Climbing FlightAware ADS-B (YBRM / BME)
Tue 01:03:30 AM -18.0384 122.1731 208° Southwest 271 312 4,700 500 Climbing FlightAware ADS-B (YBRM / BME)
Tue 01:03:34 AM -18.0421 122.1706 214° Southwest 273 314 4,700 600 Level FlightAware ADS-B (YBRM / BME)
Tue 01:03:50 AM -18.0593 122.1584 214° Southwest 276 318 4,900 1,000 Climbing FlightAware ADS-B (YBRM / BME)
Tue 01:04:04 AM -18.0736 122.1485 214° Southwest 280 322 5,200 2,143 Climbing FlightAware ADS-B (YBRM / BME)
Tue 01:04:10 AM -18.1367 122.1017 36° Northeast 16,300 3,000 Climbing Aus ATC (Calculated)
Tue 01:04:18 AM -18.0901 122.1371 214° Southwest 280 322 5,900 -22,560 Descending FlightAware ADS-B (YBRM / BME)
Tue 01:04:35 AM -18.1085 122.1245 214° Southwest 283 326 6,900 3,484 Climbing FlightAware ADS-B (YBRM / BME)
Tue 01:04:49 AM -18.1244 122.1136 213° Southwest 287 330 7,700 3,231 Climbing FlightAware ADS-B (YBRM / BME)
Tue 01:05:01 AM -18.1375 122.1048 213° Southwest 290 334 8,300 3,290 Climbing FlightAware ADS-B (YBRM / BME)
Tue 01:05:01 AM -18.1932 122.0637 37° Northeast 16,300 3,474 Climbing Aus ATC (Calculated)
Tue 01:05:15 AM -18.1932 122.0637 37° Northeast 16,300 -21,789 Level Aus ATC (Calculated)
Tue 01:05:20 AM -18.1588 122.0905 213° Southwest 295 339 9,400 -9,818 Descending FlightAware ADS-B (YBRM / BME)
Tue 01:05:48 AM -18.1908 122.0684 214° Southwest 302 348 10,900 2,200 Climbing FlightAware ADS-B (YBRM / BME)
Tue 01:06:20 AM -18.2314 122.0402 214° Southwest 346 398 11,600 2,323 Climbing FlightAware ADS-B (YBRM / BME)
Tue 01:06:38 AM -18.3202 121.9779 34° Northeast 16,300 3,400 Climbing Aus ATC (Calculated)
Tue 01:06:50 AM -18.2735 122.0112 214° Southwest 347 399 13,300 -1,857 Descending FlightAware ADS-B (YBRM / BME)
Tue 01:07:20 AM -18.3130 121.9837 214° Southwest 347 399 15,000 3,103 Climbing FlightAware ADS-B (YBRM / BME)
Tue 01:07:48 AM -18.3515 121.9573 212° Southwest 353 406 16,300 2,441 Climbing FlightAware ADS-B (YBRM / BME)
Tue 01:08:19 AM -18.3986 121.9343 202° Southwest 371 427 17,400 1,935 Climbing FlightAware ADS-B (YBRM / BME)
Tue 01:08:37 AM -18.5444 121.8747 21° North 38,000 1,742 Climbing Aus ATC (Calculated)
Tue 01:08:50 AM -18.4494 121.9137 202° Southwest 389 448 18,300 -27,220 Descending FlightAware ADS-B (YBRM / BME)
Tue 01:09:18 AM -18.4981 121.8939 202° Southwest 394 453 19,400 2,339 Climbing FlightAware ADS-B (YBRM / BME)
Tue 01:09:49 AM -18.5506 121.8724 202° Southwest 399 459 20,600 2,557 Climbing FlightAware ADS-B (YBRM / BME)
Tue 01:10:19 AM -18.6023 121.8511 202° Southwest 394 453 22,000 2,847 Climbing FlightAware ADS-B (YBRM / BME)
Tue 01:10:48 AM -18.6520 121.8305 202° Southwest 391 450 23,400 2,262 Climbing FlightAware ADS-B (YBRM / BME)
Tue 01:10:54 AM -18.7262 121.8000 21° North 38,000 1,688 Climbing Aus ATC (Calculated)
Tue 01:11:20 AM -18.7053 121.8084 202° Southwest 398 458 24,300 -13,855 Descending FlightAware ADS-B (YBRM / BME)
Tue 01:11:49 AM -18.7560 121.7875 202° Southwest 401 461 25,300 1,966 Climbing FlightAware ADS-B (YBRM / BME)
Tue 01:11:50 AM -18.9080 121.7251 21° North 38,000 1,862 Climbing Aus ATC (Calculated)
Tue 01:12:18 AM -18.8067 121.7668 202° Southwest 402 463 26,200 -11,186 Descending FlightAware ADS-B (YBRM / BME)
Tue 01:12:49 AM -18.8564 121.7464 202° Southwest 405 466 27,000 1,343 Climbing FlightAware ADS-B (YBRM / BME)
Tue 01:13:25 AM -18.9203 121.7201 202° Southwest 414 476 27,700 1,075 Climbing FlightAware ADS-B (YBRM / BME)
Tue 01:13:43 AM -19.0898 121.6500 21° North 38,000 1,029 Climbing Aus ATC (Calculated)
Tue 01:14:35 AM -19.0500 121.6665 202° Southwest 436 502 28,900 Descending FlightAware ADS-B (YBRM / BME)
Tue 01:33:30 AM -21.0793 120.8167 202° Southwest 396 456 38,100 476 Climbing Aus ATC (RADAR)
Tue 01:33:55 AM -21.1238 120.7991 200° South 402 463 38,100  Level Aus ATC (RADAR)
Tue 01:36:10 AM -21.3600 120.6988 202° Southwest 404 465 38,100  Level Aus ATC (RADAR)
Tue 01:37:25 AM -21.4914 120.6432 201° Southwest 404 465 38,100  Level Aus ATC (RADAR)
Tue 01:37:55 AM -21.5437 120.6209 202° Southwest 403 464 38,100  Level Aus ATC (RADAR)
Tue 01:39:15 AM -21.6814 120.5604 202° Southwest 401 461 38,100  Level Aus ATC (RADAR)
Tue 01:39:45 AM -21.7338 120.5385 201° Southwest 400 460 38,100  Level Aus ATC (RADAR)
Tue 01:41:30 AM -21.9150 120.4602 202° Southwest 400 460 38,100  Level Aus ATC (RADAR)
Tue 01:42:39 AM -22.0362 120.4079 202° Southwest 400 460 38,100  Level Aus ATC (RADAR)
Tue 01:43:09 AM -22.0885 120.3856 202° Southwest 401 461 38,100  Level Aus ATC (RADAR)
Tue 01:44:19 AM -22.2092 120.3329 202° Southwest 400 460 38,100  Level Aus ATC (RADAR)
Tue 01:44:49 AM -22.2605 120.3106 202° Southwest 400 460 38,100  Level Aus ATC (RADAR)
Tue 01:46:14 AM -22.4078 120.2474 202° Southwest 400 460 38,100  Level Aus ATC (RADAR)
Tue 01:47:29 AM -22.5362 120.1912 202° Southwest 397 457 38,100  Level Aus ATC (RADAR)
Tue 01:47:59 AM -22.5878 120.1689 202° Southwest 398 458 38,100  Level Aus ATC (RADAR)
Tue 01:49:14 AM -22.7162 120.1126 202° Southwest 398 458 38,100  Level Aus ATC (RADAR)
Tue 01:49:54 AM -22.7847 120.0824 202° Southwest 398 458 38,100  Level Aus ATC (RADAR)
Tue 01:52:14 AM -23.0292 119.9766 202° Southwest 404 465 38,100  Level Aus ATC (RADAR)
Tue 01:53:33 AM -23.1659 119.9162 202° Southwest 397 457 38,100  Level Aus ATC (RADAR)
Tue 01:54:04 AM -23.2177 119.8936 202° Southwest 398 458 38,100  Level Aus ATC (RADAR)
Tue 01:55:18 AM -23.3459 119.8372 202° Southwest 399 459 38,100  Level Aus ATC (RADAR)
Tue 01:55:43 AM -23.3883 119.8184 202° Southwest 397 457 38,100  Level Aus ATC (RADAR)
Tue 01:57:58 AM -23.6169 119.7217 201° Southwest 384 442 38,100  Level Aus ATC (RADAR)
Tue 01:58:28 AM -23.6714 119.6994 201° Southwest 404 465 38,100  Level Aus ATC (RADAR)
Tue 01:59:43 AM -23.7980 119.6460 201° Southwest 393 452 38,100  Level Aus ATC (RADAR)
Tue 02:00:26 AM -23.8659 119.6176 201° Southwest 393 452 38,100  Level Aus ATC (RADAR)
Tue 02:02:43 AM -24.1004 119.5189 201° Southwest 381 438 38,100  Level Aus ATC (RADAR)
Tue 02:03:48 AM -24.2077 119.4736 201° Southwest 384 442 38,100  Level Aus ATC (RADAR)
Tue 02:04:18 AM -24.2551 119.4539 201° Southwest 373 429 38,100  Level Aus ATC (RADAR)
Tue 02:05:44 AM -24.3960 119.3939 201° Southwest 383 441 38,100  Level Aus ATC (RADAR)
Tue 02:06:13 AM -24.4451 119.3732 201° Southwest 381 438 38,100  Level Aus ATC (RADAR)
Tue 02:08:23 AM -24.6598 119.2820 201° Southwest 384 442 38,100  Level Aus ATC (RADAR)
Tue 02:08:52 AM -24.7084 119.2618 201° Southwest 379 436 38,100  Level Aus ATC (RADAR)
Tue 02:10:08 AM -24.8325 119.2091 201° Southwest 382 440 38,100  Level Aus ATC (RADAR)
Tue 02:10:37 AM -24.8827 119.1873 202° Southwest 385 443 38,100  Level Aus ATC (RADAR)
Tue 02:11:57 AM -25.0148 119.1310 201° Southwest 383 441 38,100  Level Aus ATC (RADAR)
Tue 02:13:22 AM -25.1550 119.0707 201° Southwest 384 442 38,100 37 Level Aus ATC (RADAR)
Tue 02:14:38 AM -25.2789 119.0180 201° Southwest 380 437 38,200 52 Climbing Aus ATC (RADAR)
Tue 02:15:17 AM -25.3457 118.9883 202° Southwest 385 443 38,200  Level Aus ATC (RADAR)
Tue 02:16:42 AM -25.4853 118.9282 201° Southwest 381 438 38,200  Level Aus ATC (RADAR)
Tue 02:17:17 AM -25.5431 118.9027 202° Southwest 382 440 38,200  Level Aus ATC (RADAR)
Tue 02:18:32 AM -25.6659 118.8496 201° Southwest 380 437 38,200  Level Aus ATC (RADAR)
Tue 02:19:46 AM -25.7877 118.7969 201° Southwest 377 434 38,200  Level Aus ATC (RADAR)
Tue 02:20:23 AM -25.8445 118.7722 201° Southwest 376 433 38,200  Level Aus ATC (RADAR)
Tue 02:21:32 AM -25.9572 118.7231 201° Southwest 374 430 38,200  Level Aus ATC (RADAR)
Tue 02:22:02 AM -26.0056 118.7015 202° Southwest 374 430 38,200  Level Aus ATC (RADAR)
Tue 02:24:06 AM -26.2061 118.6136 201° Southwest 373 429 38,200 -31 Level Aus ATC (RADAR)
Tue 02:25:16 AM -26.3174 118.5663 201° Southwest 368 423 38,100  Descending Aus ATC (RADAR)
Tue 02:25:46 AM -26.3659 118.5419 204° Southwest 376 433 38,200 57 Climbing Aus ATC (RADAR)
Tue 02:27:01 AM -26.4831 118.4976 199° South 361 415 38,200  Level Aus ATC (RADAR)
Tue 02:27:31 AM -26.5314 118.4741 204° Southwest 367 422 38,200  Level Aus ATC (RADAR)
Tue 02:28:40 AM -26.6430 118.4242 202° Southwest 371 427 38,200  Level Aus ATC (RADAR)
Tue 02:29:56 AM -26.7636 118.3685 202° Southwest 400 460 38,200  Level Aus ATC (RADAR)
Tue 02:42:14 AM -27.9479 117.8216 202° Southwest 380 437 38,200  Level Aus ATC (RADAR)
Tue 02:42:44 AM -27.9984 117.8042 197° South 378 435 38,200  Level Aus ATC (RADAR)
Tue 02:43:59 AM -28.1227 117.7485 202° Southwest 385 443 38,200  Level Aus ATC (RADAR)
Tue 02:44:39 AM -28.1896 117.7195 201° Southwest 386 444 38,200  Level Aus ATC (RADAR)
Tue 02:46:34 AM -28.3780 117.6290 203° Southwest 383 441 38,200 -69 Level Aus ATC (RADAR)
Tue 02:47:34 AM -28.4854 117.5975 202° Southwest 382 440 38,000  Descending FlightAware ADS-B
Tue 02:47:43 AM -28.4938 117.5798 200° South 383 441 38,200  Climbing Aus ATC (RADAR)
Tue 02:48:22 AM -28.5639 117.5616 202° Southwest 381 438 38,000 -174 Descending FlightAware ADS-B
Tue 02:48:52 AM -28.6122 117.5395 202° Southwest 381 438 38,000  Level FlightAware ADS-B
Tue 02:49:32 AM -28.6775 117.5096 202° Southwest 380 437 38,000  Level FlightAware ADS-B
Tue 02:50:02 AM -28.7271 117.4868 202° Southwest 380 437 38,000  Level FlightAware ADS-B
Tue 02:50:36 AM -28.7827 117.4612 202° Southwest 379 436 38,000  Level FlightAware ADS-B
Tue 02:51:06 AM -28.8302 117.4394 203° Southwest 370 426 38,000  Level FlightAware ADS-B
Tue 02:51:51 AM -28.9039 117.4054 203° Southwest 370 426 38,000  Level FlightAware ADS-B
Tue 02:52:23 AM -28.9551 117.3818 203° Southwest 370 426 38,000  Level FlightAware ADS-B
Tue 02:52:53 AM -29.0037 117.3594 203° Southwest 370 426 38,000  Level FlightAware ADS-B
Tue 02:53:30 AM -29.0632 117.3320 203° Southwest 370 426 38,000  Level FlightAware ADS-B
Tue 02:54:06 AM -29.1217 117.3049 203° Southwest 370 426 38,000  Level FlightAware ADS-B
Tue 02:54:47 AM -29.1896 117.2735 202° Southwest 379 436 38,000  Level FlightAware ADS-B
Tue 02:55:23 AM -29.2467 117.2468 202° Southwest 379 436 38,000  Level FlightAware ADS-B
Tue 02:56:03 AM -29.3115 117.2168 202° Southwest 379 436 38,000  Level FlightAware ADS-B
Tue 02:56:41 AM -29.3744 117.1876 203° Southwest 370 426 38,000  Level FlightAware ADS-B
Tue 02:57:16 AM -29.4313 117.1612 203° Southwest 369 425 38,000  Level FlightAware ADS-B
Tue 02:57:46 AM -29.4801 117.1384 203° Southwest 370 426 38,000  Level FlightAware ADS-B
Tue 02:58:16 AM -29.5269 117.1165 203° Southwest 369 425 38,000  Level FlightAware ADS-B
Tue 02:58:46 AM -29.5758 117.0936 203° Southwest 369 425 38,000  Level FlightAware ADS-B
Tue 02:59:20 AM -29.6317 117.0675 203° Southwest 371 427 38,000  Level FlightAware ADS-B
Tue 02:59:50 AM -29.6786 117.0455 202° Southwest 381 438 38,000  Level FlightAware ADS-B
Tue 03:00:28 AM -29.7426 117.0155 202° Southwest 383 441 38,000  Level FlightAware ADS-B
Tue 03:01:00 AM -29.7946 116.9910 202° Southwest 384 442 38,000  Level FlightAware ADS-B
Tue 03:01:33 AM -29.8498 116.9651 202° Southwest 387 445 38,000  Level FlightAware ADS-B
Tue 03:02:04 AM -29.9001 116.9415 202° Southwest 387 445 38,000  Level FlightAware ADS-B
Tue 03:02:50 AM -29.9774 116.9051 203° Southwest 381 438 38,000  Level FlightAware ADS-B
Tue 03:03:20 AM -30.0267 116.8818 203° Southwest 382 440 38,000  Level FlightAware ADS-B
Tue 03:03:52 AM -30.0795 116.8569 203° Southwest 383 441 38,000  Level FlightAware ADS-B
Tue 03:04:31 AM -30.1450 116.8259 203° Southwest 384 442 38,000 -82 Level FlightAware ADS-B
Tue 03:05:05 AM -30.2024 116.7987 202° Southwest 387 445 37,900 -1,250 Descending FlightAware ADS-B
Tue 03:05:43 AM -30.2645 116.7689 203° Southwest 383 441 36,500 -1,816 Descending FlightAware ADS-B
Tue 03:06:21 AM -30.3276 116.7393 203° Southwest 384 442 35,600 -2,338 Descending FlightAware ADS-B
Tue 03:07:00 AM -30.3944 116.7075 202° Southwest 399 459 33,500 -3,154 Descending FlightAware ADS-B
Tue 03:07:39 AM -30.4615 116.6757 203° Southwest 406 467 31,500 -3,205 Descending FlightAware ADS-B
Tue 03:08:13 AM -30.5243 116.6457 202° Southwest 439 505 29,600 -2,954 Descending FlightAware ADS-B
Tue 03:08:44 AM -30.5837 116.6204 198° South 445 512 28,300 -2,657 Descending FlightAware ADS-B
Tue 03:09:23 AM -30.6588 116.5914 199° South 425 489 26,500 -2,657 Descending FlightAware ADS-B
Tue 03:09:54 AM -30.7168 116.5686 199° South 424 488 25,200 -2,625 Descending FlightAware ADS-B
Tue 03:10:27 AM -30.7777 116.5446 199° South 405 466 23,700 -2,531 Descending FlightAware ADS-B
Tue 03:10:58 AM -30.8324 116.5231 199° South 405 466 22,500 -2,451 Descending FlightAware ADS-B
Tue 03:11:38 AM -30.9038 116.4951 199° South 388 447 20,800 -2,550 Descending FlightAware ADS-B
Tue 03:12:18 AM -30.9717 116.4687 199° South 387 445 19,100 -2,466 Descending FlightAware ADS-B
Tue 03:12:51 AM -31.0270 116.4471 199° South 372 428 17,800 -2,381 Descending FlightAware ADS-B
Tue 03:13:21 AM -31.0772 116.4273 199° South 373 429 16,600 -2,300 Descending FlightAware ADS-B
Tue 03:13:51 AM -31.1242 116.4089 199° South 360 414 15,500 -2,262 Descending FlightAware ADS-B
Tue 03:14:22 AM -31.1753 116.3889 199° South 360 414 14,300 -2,250 Descending FlightAware ADS-B
Tue 03:14:55 AM -31.2271 116.3685 199° South 354 407 13,100 -2,219 Descending FlightAware ADS-B
Tue 03:15:35 AM -31.2883 116.3445 199° South 337 388 11,600 -1,950 Descending FlightAware ADS-B
Tue 03:16:15 AM -31.3483 116.3208 199° South 321 369 10,500 -1,200 Descending FlightAware ADS-B
Tue 03:16:55 AM -31.4023 116.2995 199° South 294 338 10,000 -973 Descending FlightAware ADS-B
Tue 03:17:29 AM -31.4442 116.2761 210° Southwest 276 318 9,300 -1,245 Descending FlightAware ADS-B
Tue 03:17:48 AM -31.4646 116.2631 209° Southwest 281 323 8,900 -1,364 Descending FlightAware ADS-B
Tue 03:18:13 AM -31.4929 116.2450 208° Southwest 277 319 8,300 -1,532 Descending FlightAware ADS-B
Tue 03:18:35 AM -31.5179 116.2289 209° Southwest 274 315 7,700 -1,429 Descending FlightAware ADS-B
Tue 03:18:55 AM -31.5404 116.2144 210° Southwest 264 304 7,300 -1,347 Descending FlightAware ADS-B
Tue 03:19:24 AM -31.5721 116.1942 210° Southwest 260 299 6,600 -1,469 Descending FlightAware ADS-B
Tue 03:19:44 AM -31.5930 116.1809 209° Southwest 258 297 6,100 -1,317 Descending FlightAware ADS-B
Tue 03:20:05 AM -31.6158 116.1661 209° Southwest 260 299 5,700 -800 Descending FlightAware ADS-B
Tue 03:20:29 AM -31.6408 116.1503 209° Southwest 242 278 5,500 -698 Descending FlightAware ADS-B
Tue 03:20:48 AM -31.6593 116.1384 209° Southwest 244 281 5,200 -1,043 Descending FlightAware ADS-B
Tue 03:21:15 AM -31.6849 116.1221 209° Southwest 242 278 4,700 -980 Descending FlightAware ADS-B
Tue 03:21:37 AM -31.7078 116.1074 210° Southwest 229 264 4,400 -698 Descending FlightAware ADS-B
Tue 03:21:58 AM -31.7270 116.0948 209° Southwest 226 260 4,200 -600 Descending FlightAware ADS-B
Tue 03:22:17 AM -31.7431 116.0845 210° Southwest 211 243 4,000 -714 Descending FlightAware ADS-B
Tue 03:22:40 AM -31.7600 116.0679 231° Southwest 200 230 3,700 -947 Descending FlightAware ADS-B
Tue 03:22:55 AM -31.7691 116.0536 235° Southwest 198 228 3,400 -1,125 Descending FlightAware ADS-B
Tue 03:23:12 AM -31.7787 116.0388 235° Southwest 198 228 3,100 -923 Descending FlightAware ADS-B
Tue 03:23:47 AM -31.7962 116.0119 227° Southwest 195 224 2,600 -1,038 Descending FlightAware ADS-B
Tue 03:24:04 AM -31.8106 116.0023 211° Southwest 188 216 2,200 -911 Descending FlightAware ADS-B
Tue 03:25:39 AM -31.8819 115.9822 211° Southwest 145 167 900 -821 Descending Aus ATC (RADAR)
Tue 03:26:56 AM -31.9321 115.9675 211° Southwest 188 216 -701 Descending FlightAware ADS-B

Login

Don't have an account? Register now (free) for customized features, flight alerts, and more!